sensor_id;sensor_type;location;lat;lon;timestamp;pressure;altitude;pressure_sealevel;temperature;humidity
60055;BME280;45930;53.514;55.904;2023-04-12T00:00:03;49211.19;;;-149.77;45.90
60055;BME280;45930;53.514;55.904;2023-04-12T00:01:04;49240.91;;;-149.77;45.95
60055;BME280;45930;53.514;55.904;2023-04-12T00:02:05;49233.00;;;-149.77;46.03
60055;BME280;45930;53.514;55.904;2023-04-12T00:03:08;49221.09;;;-149.77;46.31
60055;BME280;45930;53.514;55.904;2023-04-12T00:04:09;49238.94;;;-149.77;46.36
60055;BME280;45930;53.514;55.904;2023-04-12T00:05:15;49233.00;;;-149.77;46.31
60055;BME280;45930;53.514;55.904;2023-04-12T00:06:16;49262.69;;;-149.77;46.40
60055;BME280;45930;53.514;55.904;2023-04-12T00:07:16;49231.00;;;-149.77;46.29
60055;BME280;45930;53.514;55.904;2023-04-12T00:08:18;49238.94;;;-149.77;46.74
60055;BME280;45930;53.514;55.904;2023-04-12T00:09:24;49233.00;;;-149.77;47.00
60055;BME280;45930;53.514;55.904;2023-04-12T00:10:24;49227.03;;;-149.77;47.19
60055;BME280;45930;53.514;55.904;2023-04-12T00:11:25;49227.03;;;-149.77;47.35
60055;BME280;45930;53.514;55.904;2023-04-12T00:12:27;49256.75;;;-149.77;47.82
60055;BME280;45930;53.514;55.904;2023-04-12T00:13:29;49236.94;;;-149.77;47.79
60055;BME280;45930;53.514;55.904;2023-04-12T00:14:30;49234.97;;;-149.77;48.14
60055;BME280;45930;53.514;55.904;2023-04-12T00:15:31;49231.00;;;-149.77;48.34
60055;BME280;45930;53.514;55.904;2023-04-12T00:16:31;49223.09;;;-149.77;48.59
60055;BME280;45930;53.514;55.904;2023-04-12T00:17:32;49225.06;;;-149.77;48.79
60055;BME280;45930;53.514;55.904;2023-04-12T00:18:33;49258.75;;;-149.77;48.65
60055;BME280;45930;53.514;55.904;2023-04-12T00:19:34;49250.81;;;-149.77;48.57
60055;BME280;45930;53.514;55.904;2023-04-12T00:20:35;49231.00;;;-149.77;48.87
60055;BME280;45930;53.514;55.904;2023-04-12T00:21:35;49223.09;;;-149.77;48.94
60055;BME280;45930;53.514;55.904;2023-04-12T00:22:39;49238.94;;;-149.77;48.94
60055;BME280;45930;53.514;55.904;2023-04-12T00:23:41;49225.06;;;-149.77;49.16
60055;BME280;45930;53.514;55.904;2023-04-12T00:24:42;49231.00;;;-149.77;48.81
60055;BME280;45930;53.514;55.904;2023-04-12T00:25:43;49242.91;;;-149.77;49.17
60055;BME280;45930;53.514;55.904;2023-04-12T00:26:44;49221.09;;;-149.77;48.96
60055;BME280;45930;53.514;55.904;2023-04-12T00:27:45;49225.06;;;-149.77;48.95
60055;BME280;45930;53.514;55.904;2023-04-12T00:28:46;49256.75;;;-149.77;49.17
60055;BME280;45930;53.514;55.904;2023-04-12T00:29:47;49238.94;;;-149.77;49.17
60055;BME280;45930;53.514;55.904;2023-04-12T00:30:48;49240.91;;;-149.77;49.01
60055;BME280;45930;53.514;55.904;2023-04-12T00:31:49;49238.94;;;-149.77;49.05
60055;BME280;45930;53.514;55.904;2023-04-12T00:32:50;49240.91;;;-149.77;48.89
60055;BME280;45930;53.514;55.904;2023-04-12T00:33:50;49233.00;;;-149.77;48.91
60055;BME280;45930;53.514;55.904;2023-04-12T00:34:51;49231.00;;;-149.77;48.51
60055;BME280;45930;53.514;55.904;2023-04-12T00:35:52;49229.03;;;-149.77;48.83
60055;BME280;45930;53.514;55.904;2023-04-12T00:36:53;49250.81;;;-149.77;48.52
60055;BME280;45930;53.514;55.904;2023-04-12T00:37:54;49252.78;;;-149.77;48.56
60055;BME280;45930;53.514;55.904;2023-04-12T00:38:55;49227.03;;;-149.77;48.34
60055;BME280;45930;53.514;55.904;2023-04-12T00:39:55;49231.00;;;-149.77;48.60
60055;BME280;45930;53.514;55.904;2023-04-12T00:40:56;49238.94;;;-149.77;48.64
60055;BME280;45930;53.514;55.904;2023-04-12T00:42:02;49233.00;;;-149.77;48.44
60055;BME280;45930;53.514;55.904;2023-04-12T00:43:02;49246.84;;;-149.77;48.66
60055;BME280;45930;53.514;55.904;2023-04-12T00:44:03;49207.25;;;-149.77;48.39
60055;BME280;45930;53.514;55.904;2023-04-12T00:45:05;49236.94;;;-149.77;47.77
60055;BME280;45930;53.514;55.904;2023-04-12T00:46:06;49221.09;;;-149.77;47.85
60055;BME280;45930;53.514;55.904;2023-04-12T00:47:07;49213.19;;;-149.77;47.31
60055;BME280;45930;53.514;55.904;2023-04-12T00:48:08;49201.28;;;-149.77;47.54
60055;BME280;45930;53.514;55.904;2023-04-12T00:49:09;49234.97;;;-149.77;47.22
60055;BME280;45930;53.514;55.904;2023-04-12T00:50:11;49207.25;;;-149.77;47.60
60055;BME280;45930;53.514;55.904;2023-04-12T00:51:13;49227.03;;;-149.77;47.21
60055;BME280;45930;53.514;55.904;2023-04-12T00:52:15;49256.75;;;-149.77;47.82
60055;BME280;45930;53.514;55.904;2023-04-12T00:53:17;49238.94;;;-149.77;47.64
60055;BME280;45930;53.514;55.904;2023-04-12T00:54:18;49248.84;;;-149.77;47.26
60055;BME280;45930;53.514;55.904;2023-04-12T00:55:19;49236.94;;;-149.77;47.28
60055;BME280;45930;53.514;55.904;2023-04-12T00:56:20;49231.00;;;-149.77;46.99
60055;BME280;45930;53.514;55.904;2023-04-12T00:57:23;49234.97;;;-149.77;47.04
60055;BME280;45930;53.514;55.904;2023-04-12T00:58:23;49246.84;;;-149.77;46.94
60055;BME280;45930;53.514;55.904;2023-04-12T00:59:25;49242.91;;;-149.77;47.48
60055;BME280;45930;53.514;55.904;2023-04-12T01:00:26;49221.09;;;-149.77;47.49
60055;BME280;45930;53.514;55.904;2023-04-12T01:01:27;49227.03;;;-149.77;48.16
60055;BME280;45930;53.514;55.904;2023-04-12T01:02:27;49250.81;;;-149.77;48.15
60055;BME280;45930;53.514;55.904;2023-04-12T01:03:30;49242.91;;;-149.77;48.56
60055;BME280;45930;53.514;55.904;2023-04-12T01:04:31;49225.06;;;-149.77;48.44
60055;BME280;45930;53.514;55.904;2023-04-12T01:05:47;49207.25;;;-149.77;48.89
60055;BME280;45930;53.514;55.904;2023-04-12T01:07:28;49225.06;;;-149.77;49.47
60055;BME280;45930;53.514;55.904;2023-04-12T01:12:52;49207.25;;;-149.77;48.77
60055;BME280;45930;53.514;55.904;2023-04-12T01:14:10;49236.94;;;-149.77;48.31
60055;BME280;45930;53.514;55.904;2023-04-12T01:15:15;49229.03;;;-149.77;48.76
60055;BME280;45930;53.514;55.904;2023-04-12T01:16:19;49223.09;;;-149.77;49.16
60055;BME280;45930;53.514;55.904;2023-04-12T01:17:27;49246.84;;;-149.77;49.01
60055;BME280;45930;53.514;55.904;2023-04-12T01:18:32;49260.72;;;-149.77;48.78
60055;BME280;45930;53.514;55.904;2023-04-12T01:21:52;49236.94;;;-149.77;48.45
60055;BME280;45930;53.514;55.904;2023-04-12T01:24:25;49248.84;;;-149.77;48.49
60055;BME280;45930;53.514;55.904;2023-04-12T01:26:48;49231.00;;;-149.77;48.81
60055;BME280;45930;53.514;55.904;2023-04-12T01:27:56;49223.09;;;-149.77;48.81
60055;BME280;45930;53.514;55.904;2023-04-12T01:29:01;49231.00;;;-149.77;48.54
60055;BME280;45930;53.514;55.904;2023-04-12T01:30:05;49221.09;;;-149.77;48.32
60055;BME280;45930;53.514;55.904;2023-04-12T01:31:07;49219.13;;;-149.77;48.25
60055;BME280;45930;53.514;55.904;2023-04-12T01:32:10;49219.13;;;-149.77;48.35
60055;BME280;45930;53.514;55.904;2023-04-12T01:33:12;49236.94;;;-149.77;48.79
60055;BME280;45930;53.514;55.904;2023-04-12T01:34:15;49238.94;;;-149.77;48.89
60055;BME280;45930;53.514;55.904;2023-04-12T01:35:19;49246.84;;;-149.77;48.94
60055;BME280;45930;53.514;55.904;2023-04-12T01:36:21;49229.03;;;-149.77;49.15
60055;BME280;45930;53.514;55.904;2023-04-12T01:37:24;49211.19;;;-149.77;48.69
60055;BME280;45930;53.514;55.904;2023-04-12T01:38:26;49229.03;;;-149.77;48.56
60055;BME280;45930;53.514;55.904;2023-04-12T01:39:28;49242.91;;;-149.77;48.56
60055;BME280;45930;53.514;55.904;2023-04-12T01:40:30;49227.03;;;-149.77;48.83
60055;BME280;45930;53.514;55.904;2023-04-12T01:41:38;49223.09;;;-149.77;48.80
60055;BME280;45930;53.514;55.904;2023-04-12T01:42:41;49256.75;;;-149.77;48.84
60055;BME280;45930;53.514;55.904;2023-04-12T01:43:43;49227.03;;;-149.77;48.96
60055;BME280;45930;53.514;55.904;2023-04-12T01:44:44;49248.84;;;-149.77;48.96
60055;BME280;45930;53.514;55.904;2023-04-12T01:45:44;49242.91;;;-149.77;48.99
60055;BME280;45930;53.514;55.904;2023-04-12T01:46:46;49209.22;;;-149.77;48.69
60055;BME280;45930;53.514;55.904;2023-04-12T01:47:46;49207.25;;;-149.77;49.04
60055;BME280;45930;53.514;55.904;2023-04-12T01:48:49;49234.97;;;-149.77;48.99
60055;BME280;45930;53.514;55.904;2023-04-12T01:50:02;49229.03;;;-149.77;49.10
60055;BME280;45930;53.514;55.904;2023-04-12T01:51:28;49229.03;;;-149.77;49.24
60055;BME280;45930;53.514;55.904;2023-04-12T01:52:31;49234.97;;;-149.77;48.83
60055;BME280;45930;53.514;55.904;2023-04-12T01:53:55;49244.88;;;-149.77;49.09
60055;BME280;45930;53.514;55.904;2023-04-12T01:54:57;49221.09;;;-149.77;49.35
60055;BME280;45930;53.514;55.904;2023-04-12T01:56:07;49238.94;;;-149.77;49.58
60055;BME280;45930;53.514;55.904;2023-04-12T01:57:09;49236.94;;;-149.77;50.00
60055;BME280;45930;53.514;55.904;2023-04-12T01:58:11;49244.88;;;-149.77;49.83
60055;BME280;45930;53.514;55.904;2023-04-12T01:59:14;49246.84;;;-149.77;49.81
60055;BME280;45930;53.514;55.904;2023-04-12T02:00:16;49240.91;;;-149.77;50.11
60055;BME280;45930;53.514;55.904;2023-04-12T02:01:18;49238.94;;;-149.77;50.12
60055;BME280;45930;53.514;55.904;2023-04-12T02:02:19;49250.81;;;-149.77;50.52
60055;BME280;45930;53.514;55.904;2023-04-12T02:03:21;49221.09;;;-149.77;50.29
60055;BME280;45930;53.514;55.904;2023-04-12T02:04:23;49203.28;;;-149.77;50.13
60055;BME280;45930;53.514;55.904;2023-04-12T02:05:26;49215.16;;;-149.77;50.44
60055;BME280;45930;53.514;55.904;2023-04-12T02:06:27;49252.78;;;-149.77;50.25
60055;BME280;45930;53.514;55.904;2023-04-12T02:07:27;49231.00;;;-149.77;50.33
60055;BME280;45930;53.514;55.904;2023-04-12T02:08:28;49211.19;;;-149.77;49.99
60055;BME280;45930;53.514;55.904;2023-04-12T02:09:32;49233.00;;;-149.77;49.98
60055;BME280;45930;53.514;55.904;2023-04-12T02:10:35;49248.84;;;-149.77;49.79
60055;BME280;45930;53.514;55.904;2023-04-12T02:11:40;49207.25;;;-149.77;49.49
60055;BME280;45930;53.514;55.904;2023-04-12T02:12:41;49225.06;;;-149.77;49.60
60055;BME280;45930;53.514;55.904;2023-04-12T02:13:42;49246.84;;;-149.77;49.56
60055;BME280;45930;53.514;55.904;2023-04-12T02:14:42;49231.00;;;-149.77;49.88
60055;BME280;45930;53.514;55.904;2023-04-12T02:15:44;49221.09;;;-149.77;49.88
60055;BME280;45930;53.514;55.904;2023-04-12T02:16:45;49231.00;;;-149.77;50.35
60055;BME280;45930;53.514;55.904;2023-04-12T02:17:47;49234.97;;;-149.77;50.35
60055;BME280;45930;53.514;55.904;2023-04-12T02:18:51;49203.28;;;-149.77;50.36
60055;BME280;45930;53.514;55.904;2023-04-12T02:19:51;49233.00;;;-149.77;50.46
60055;BME280;45930;53.514;55.904;2023-04-12T02:20:52;49236.94;;;-149.77;50.21
60055;BME280;45930;53.514;55.904;2023-04-12T02:21:53;49231.00;;;-149.77;50.25
60055;BME280;45930;53.514;55.904;2023-04-12T02:22:56;49238.94;;;-149.77;50.50
60055;BME280;45930;53.514;55.904;2023-04-12T02:23:57;49234.97;;;-149.77;50.06
60055;BME280;45930;53.514;55.904;2023-04-12T02:24:58;49252.78;;;-149.77;50.38
60055;BME280;45930;53.514;55.904;2023-04-12T02:25:59;49234.97;;;-149.77;50.44
60055;BME280;45930;53.514;55.904;2023-04-12T02:27:00;49219.13;;;-149.77;50.43
60055;BME280;45930;53.514;55.904;2023-04-12T02:28:01;49205.25;;;-149.77;50.78
60055;BME280;45930;53.514;55.904;2023-04-12T02:29:03;49240.91;;;-149.77;50.76
60055;BME280;45930;53.514;55.904;2023-04-12T02:30:04;49234.97;;;-149.77;50.96
60055;BME280;45930;53.514;55.904;2023-04-12T02:31:05;49207.25;;;-149.77;51.06
60055;BME280;45930;53.514;55.904;2023-04-12T02:32:06;49217.13;;;-149.77;51.18
60055;BME280;45930;53.514;55.904;2023-04-12T02:33:07;49227.03;;;-149.77;51.27
60055;BME280;45930;53.514;55.904;2023-04-12T02:34:08;49221.09;;;-149.77;51.82
60055;BME280;45930;53.514;55.904;2023-04-12T02:35:14;49213.19;;;-149.77;51.80
60055;BME280;45930;53.514;55.904;2023-04-12T02:36:18;49185.44;;;-149.77;51.34
60055;BME280;45930;53.514;55.904;2023-04-12T02:37:18;49209.22;;;-149.77;51.42
60055;BME280;45930;53.514;55.904;2023-04-12T02:38:22;49195.34;;;-149.77;51.93
60055;BME280;45930;53.514;55.904;2023-04-12T02:39:22;49187.44;;;-149.77;51.90
60055;BME280;45930;53.514;55.904;2023-04-12T02:40:24;49217.13;;;-149.77;52.10
60055;BME280;45930;53.514;55.904;2023-04-12T02:41:24;49201.28;;;-149.77;52.35
60055;BME280;45930;53.514;55.904;2023-04-12T02:42:29;49185.44;;;-149.77;52.80
60055;BME280;45930;53.514;55.904;2023-04-12T02:43:31;49177.53;;;-149.77;52.59
60055;BME280;45930;53.514;55.904;2023-04-12T02:44:32;49175.53;;;-149.77;53.21
60055;BME280;45930;53.514;55.904;2023-04-12T02:45:33;49197.34;;;-149.77;53.14
60055;BME280;45930;53.514;55.904;2023-04-12T02:46:34;49187.44;;;-149.77;53.13
60055;BME280;45930;53.514;55.904;2023-04-12T02:47:35;49219.13;;;-149.77;53.25
60055;BME280;45930;53.514;55.904;2023-04-12T02:48:36;49185.44;;;-149.77;53.38
60055;BME280;45930;53.514;55.904;2023-04-12T02:49:37;49179.50;;;-149.77;53.17
60055;BME280;45930;53.514;55.904;2023-04-12T02:50:37;49181.50;;;-149.77;52.79
60055;BME280;45930;53.514;55.904;2023-04-12T02:51:38;49215.16;;;-149.77;52.42
60055;BME280;45930;53.514;55.904;2023-04-12T02:52:39;49195.34;;;-149.77;52.71
60055;BME280;45930;53.514;55.904;2023-04-12T02:53:40;49197.34;;;-149.77;52.47
60055;BME280;45930;53.514;55.904;2023-04-12T02:54:41;49187.44;;;-149.77;52.60
60055;BME280;45930;53.514;55.904;2023-04-12T02:55:42;49175.53;;;-149.77;52.90
60055;BME280;45930;53.514;55.904;2023-04-12T02:56:45;49189.41;;;-149.77;52.87
60055;BME280;45930;53.514;55.904;2023-04-12T02:57:46;49187.44;;;-149.77;53.35
60055;BME280;45930;53.514;55.904;2023-04-12T02:58:48;49171.59;;;-149.77;53.35
60055;BME280;45930;53.514;55.904;2023-04-12T02:59:52;49167.63;;;-149.77;53.27
60055;BME280;45930;53.514;55.904;2023-04-12T03:00:53;49181.50;;;-149.77;53.02
60055;BME280;45930;53.514;55.904;2023-04-12T03:01:54;49157.72;;;-149.77;52.53
60055;BME280;45930;53.514;55.904;2023-04-12T03:02:54;49163.66;;;-149.77;52.18
60055;BME280;45930;53.514;55.904;2023-04-12T03:03:58;49151.78;;;-149.77;51.67
60055;BME280;45930;53.514;55.904;2023-04-12T03:04:58;49133.94;;;-149.77;51.30
60055;BME280;45930;53.514;55.904;2023-04-12T03:05:59;49179.50;;;-149.77;50.87
60055;BME280;45930;53.514;55.904;2023-04-12T03:07:00;49143.84;;;-149.77;50.68
60055;BME280;45930;53.514;55.904;2023-04-12T03:08:01;49151.78;;;-149.77;50.38
60055;BME280;45930;53.514;55.904;2023-04-12T03:09:02;49143.84;;;-149.77;50.17
60055;BME280;45930;53.514;55.904;2023-04-12T03:10:03;49159.69;;;-149.77;50.32
60055;BME280;45930;53.514;55.904;2023-04-12T03:11:07;49141.88;;;-149.77;50.08
60055;BME280;45930;53.514;55.904;2023-04-12T03:12:07;49145.84;;;-149.77;49.82
60055;BME280;45930;53.514;55.904;2023-04-12T03:13:08;49147.81;;;-149.77;49.64
60055;BME280;45930;53.514;55.904;2023-04-12T03:14:09;49151.78;;;-149.77;49.13
60055;BME280;45930;53.514;55.904;2023-04-12T03:15:10;49149.78;;;-149.77;49.09
60055;BME280;45930;53.514;55.904;2023-04-12T03:16:23;49151.78;;;-149.77;48.69
60055;BME280;45930;53.514;55.904;2023-04-12T03:17:24;49130.00;;;-149.77;48.46
60055;BME280;45930;53.514;55.904;2023-04-12T03:18:31;49151.78;;;-149.77;48.51
60055;BME280;45930;53.514;55.904;2023-04-12T03:19:31;49161.69;;;-149.77;47.90
60055;BME280;45930;53.514;55.904;2023-04-12T03:20:34;49147.81;;;-149.77;47.91
60055;BME280;45930;53.514;55.904;2023-04-12T03:21:35;49135.94;;;-149.77;47.54
60055;BME280;45930;53.514;55.904;2023-04-12T03:22:36;49110.19;;;-149.77;47.49
60055;BME280;45930;53.514;55.904;2023-04-12T03:23:37;49128.00;;;-149.77;47.36
60055;BME280;45930;53.514;55.904;2023-04-12T03:24:38;49137.91;;;-149.77;47.54
60055;BME280;45930;53.514;55.904;2023-04-12T03:25:42;49143.84;;;-149.77;46.94
60055;BME280;45930;53.514;55.904;2023-04-12T03:26:44;49128.00;;;-149.77;47.08
60055;BME280;45930;53.514;55.904;2023-04-12T03:27:45;49135.94;;;-149.77;46.70
60055;BME280;45930;53.514;55.904;2023-04-12T03:28:46;49122.06;;;-149.77;46.57
60055;BME280;45930;53.514;55.904;2023-04-12T03:29:47;49151.78;;;-149.77;46.01
60055;BME280;45930;53.514;55.904;2023-04-12T03:30:48;49141.88;;;-149.77;45.87
60055;BME280;45930;53.514;55.904;2023-04-12T03:31:49;49124.03;;;-149.77;45.90
60055;BME280;45930;53.514;55.904;2023-04-12T03:32:49;49151.78;;;-149.77;45.94
60055;BME280;45930;53.514;55.904;2023-04-12T03:33:50;49104.25;;;-149.77;45.37
60055;BME280;45930;53.514;55.904;2023-04-12T03:34:51;49133.94;;;-149.77;45.52
60055;BME280;45930;53.514;55.904;2023-04-12T03:35:52;49112.16;;;-149.77;45.01
60055;BME280;45930;53.514;55.904;2023-04-12T03:36:53;49118.09;;;-149.77;44.78
60055;BME280;45930;53.514;55.904;2023-04-12T03:37:55;49116.13;;;-149.77;44.47
60055;BME280;45930;53.514;55.904;2023-04-12T03:38:55;49094.34;;;-149.77;44.28
60055;BME280;45930;53.514;55.904;2023-04-12T03:39:56;49114.16;;;-149.77;44.00
60055;BME280;45930;53.514;55.904;2023-04-12T03:40:57;49124.03;;;-149.77;43.98
60055;BME280;45930;53.514;55.904;2023-04-12T03:41:58;49092.34;;;-149.77;43.88
60055;BME280;45930;53.514;55.904;2023-04-12T03:42:58;49106.22;;;-149.77;43.75
60055;BME280;45930;53.514;55.904;2023-04-12T03:43:59;49114.16;;;-149.77;43.80
60055;BME280;45930;53.514;55.904;2023-04-12T03:45:00;49112.16;;;-149.77;43.58
60055;BME280;45930;53.514;55.904;2023-04-12T03:46:04;49104.25;;;-149.77;43.47
60055;BME280;45930;53.514;55.904;2023-04-12T03:47:05;49096.31;;;-149.77;43.25
60055;BME280;45930;53.514;55.904;2023-04-12T03:48:06;49100.28;;;-149.77;42.92
60055;BME280;45930;53.514;55.904;2023-04-12T03:49:07;49108.19;;;-149.77;42.93
60055;BME280;45930;53.514;55.904;2023-04-12T03:50:08;49104.25;;;-149.77;42.81
60055;BME280;45930;53.514;55.904;2023-04-12T03:51:09;49090.38;;;-149.77;42.67
60055;BME280;45930;53.514;55.904;2023-04-12T03:52:11;49088.41;;;-149.77;42.45
60055;BME280;45930;53.514;55.904;2023-04-12T03:53:12;49114.16;;;-149.77;42.67
60055;BME280;45930;53.514;55.904;2023-04-12T03:54:13;49092.34;;;-149.77;42.80
60055;BME280;45930;53.514;55.904;2023-04-12T03:55:14;49135.94;;;-149.77;42.60
60055;BME280;45930;53.514;55.904;2023-04-12T03:56:17;49096.31;;;-149.77;42.42
60055;BME280;45930;53.514;55.904;2023-04-12T03:57:19;49080.47;;;-149.77;42.34
60055;BME280;45930;53.514;55.904;2023-04-12T03:58:20;49096.31;;;-149.77;42.18
60055;BME280;45930;53.514;55.904;2023-04-12T03:59:21;49090.38;;;-149.77;42.09
60055;BME280;45930;53.514;55.904;2023-04-12T04:00:22;49078.50;;;-149.77;41.97
60055;BME280;45930;53.514;55.904;2023-04-12T04:01:22;49090.38;;;-149.77;41.92
60055;BME280;45930;53.514;55.904;2023-04-12T04:02:25;49090.38;;;-149.77;41.65
60055;BME280;45930;53.514;55.904;2023-04-12T04:03:26;49068.59;;;-149.77;41.52
60055;BME280;45930;53.514;55.904;2023-04-12T04:04:28;49096.31;;;-149.77;41.17
60055;BME280;45930;53.514;55.904;2023-04-12T04:05:30;49072.53;;;-149.77;41.11
60055;BME280;45930;53.514;55.904;2023-04-12T04:06:31;49046.78;;;-149.77;41.01
60055;BME280;45930;53.514;55.904;2023-04-12T04:07:33;49084.44;;;-149.77;40.81
60055;BME280;45930;53.514;55.904;2023-04-12T04:08:36;49074.53;;;-149.77;40.99
60055;BME280;45930;53.514;55.904;2023-04-12T04:09:37;49092.34;;;-149.77;41.08
60055;BME280;45930;53.514;55.904;2023-04-12T04:10:38;49098.28;;;-149.77;40.92
60055;BME280;45930;53.514;55.904;2023-04-12T04:11:39;49074.53;;;-149.77;40.86
60055;BME280;45930;53.514;55.904;2023-04-12T04:12:39;49100.28;;;-149.77;40.50
60055;BME280;45930;53.514;55.904;2023-04-12T04:13:40;49088.41;;;-149.77;40.47
60055;BME280;45930;53.514;55.904;2023-04-12T04:14:41;49068.59;;;-149.77;40.01
60055;BME280;45930;53.514;55.904;2023-04-12T04:15:42;49094.34;;;-149.77;39.85
60055;BME280;45930;53.514;55.904;2023-04-12T04:16:43;49092.34;;;-149.77;39.74
60055;BME280;45930;53.514;55.904;2023-04-12T04:17:44;49068.59;;;-149.77;39.68
60055;BME280;45930;53.514;55.904;2023-04-12T04:18:46;49070.56;;;-149.77;39.65
60055;BME280;45930;53.514;55.904;2023-04-12T04:19:47;49052.75;;;-149.77;39.40
60055;BME280;45930;53.514;55.904;2023-04-12T04:20:49;49090.38;;;-149.77;39.55
60055;BME280;45930;53.514;55.904;2023-04-12T04:21:50;49062.66;;;-149.77;39.21
60055;BME280;45930;53.514;55.904;2023-04-12T04:22:51;49088.41;;;-149.77;39.12
60055;BME280;45930;53.514;55.904;2023-04-12T04:23:52;49030.94;;;-149.77;39.22
60055;BME280;45930;53.514;55.904;2023-04-12T04:24:53;49064.63;;;-149.77;38.77
60055;BME280;45930;53.514;55.904;2023-04-12T04:25:55;49070.56;;;-149.77;38.92
60055;BME280;45930;53.514;55.904;2023-04-12T04:26:57;49060.66;;;-149.77;38.92
60055;BME280;45930;53.514;55.904;2023-04-12T04:27:58;49042.84;;;-149.77;38.77
60055;BME280;45930;53.514;55.904;2023-04-12T04:28:59;49056.69;;;-149.77;38.42
60055;BME280;45930;53.514;55.904;2023-04-12T04:30:03;49038.88;;;-149.77;38.33
60055;BME280;45930;53.514;55.904;2023-04-12T04:31:05;49036.91;;;-149.77;38.25
60055;BME280;45930;53.514;55.904;2023-04-12T04:32:06;49082.44;;;-149.77;37.97
60055;BME280;45930;53.514;55.904;2023-04-12T04:33:07;49068.59;;;-149.77;38.07
60055;BME280;45930;53.514;55.904;2023-04-12T04:34:08;49042.84;;;-149.77;37.64
60055;BME280;45930;53.514;55.904;2023-04-12T04:35:09;49062.66;;;-149.77;37.88
60055;BME280;45930;53.514;55.904;2023-04-12T04:36:10;49090.38;;;-149.77;37.46
60055;BME280;45930;53.514;55.904;2023-04-12T04:37:12;49060.66;;;-149.77;37.63
60055;BME280;45930;53.514;55.904;2023-04-12T04:38:12;49040.84;;;-149.77;37.33
60055;BME280;45930;53.514;55.904;2023-04-12T04:39:15;49056.69;;;-149.77;36.89
60055;BME280;45930;53.514;55.904;2023-04-12T04:40:16;49072.53;;;-149.77;36.78
60055;BME280;45930;53.514;55.904;2023-04-12T04:41:18;49068.59;;;-149.77;36.17
60055;BME280;45930;53.514;55.904;2023-04-12T04:42:22;49046.78;;;-149.77;36.18
60055;BME280;45930;53.514;55.904;2023-04-12T04:43:24;49048.78;;;-149.77;36.32
60055;BME280;45930;53.514;55.904;2023-04-12T04:44:25;49034.91;;;-149.77;36.50
60055;BME280;45930;53.514;55.904;2023-04-12T04:45:26;49072.53;;;-149.77;36.29
60055;BME280;45930;53.514;55.904;2023-04-12T04:46:27;49062.66;;;-149.77;36.20
60055;BME280;45930;53.514;55.904;2023-04-12T04:47:30;49040.84;;;-149.77;36.25
60055;BME280;45930;53.514;55.904;2023-04-12T04:48:30;49046.78;;;-149.77;36.29
60055;BME280;45930;53.514;55.904;2023-04-12T04:49:31;49044.81;;;-149.77;35.97
60055;BME280;45930;53.514;55.904;2023-04-12T04:50:33;49058.69;;;-149.77;35.67
60055;BME280;45930;53.514;55.904;2023-04-12T04:51:33;49056.69;;;-149.77;35.71
60055;BME280;45930;53.514;55.904;2023-04-12T04:52:36;49036.91;;;-149.77;35.59
60055;BME280;45930;53.514;55.904;2023-04-12T04:53:37;49076.50;;;-149.77;35.49
60055;BME280;45930;53.514;55.904;2023-04-12T04:54:37;49042.84;;;-149.77;35.23
60055;BME280;45930;53.514;55.904;2023-04-12T04:55:39;49046.78;;;-149.77;35.11
60055;BME280;45930;53.514;55.904;2023-04-12T04:56:40;49044.81;;;-149.77;34.98
60055;BME280;45930;53.514;55.904;2023-04-12T04:57:41;49027.00;;;-149.77;34.93
60055;BME280;45930;53.514;55.904;2023-04-12T04:58:42;49064.63;;;-149.77;34.88
60055;BME280;45930;53.514;55.904;2023-04-12T04:59:43;49027.00;;;-149.77;35.16
60055;BME280;45930;53.514;55.904;2023-04-12T05:00:43;49064.63;;;-149.77;35.08
60055;BME280;45930;53.514;55.904;2023-04-12T05:01:44;49038.88;;;-149.77;34.86
60055;BME280;45930;53.514;55.904;2023-04-12T05:02:45;49038.88;;;-149.77;34.83
60055;BME280;45930;53.514;55.904;2023-04-12T05:03:46;49048.78;;;-149.77;34.81
60055;BME280;45930;53.514;55.904;2023-04-12T05:04:49;49048.78;;;-149.77;34.64
60055;BME280;45930;53.514;55.904;2023-04-12T05:05:50;49062.66;;;-149.77;34.67
60055;BME280;45930;53.514;55.904;2023-04-12T05:06:51;49052.75;;;-149.77;34.22
60055;BME280;45930;53.514;55.904;2023-04-12T05:07:53;49052.75;;;-149.77;33.96
60055;BME280;45930;53.514;55.904;2023-04-12T05:08:54;49066.59;;;-149.77;34.16
60055;BME280;45930;53.514;55.904;2023-04-12T05:09:56;49072.53;;;-149.77;34.40
60055;BME280;45930;53.514;55.904;2023-04-12T05:10:56;49062.66;;;-149.77;34.05
60055;BME280;45930;53.514;55.904;2023-04-12T05:11:57;49062.66;;;-149.77;34.07
60055;BME280;45930;53.514;55.904;2023-04-12T05:12:58;49072.53;;;-149.77;33.96
60055;BME280;45930;53.514;55.904;2023-04-12T05:13:59;49032.94;;;-149.77;33.97
60055;BME280;45930;53.514;55.904;2023-04-12T05:15:00;49074.53;;;-149.77;33.78
60055;BME280;45930;53.514;55.904;2023-04-12T05:16:05;49074.53;;;-149.77;33.54
60055;BME280;45930;53.514;55.904;2023-04-12T05:17:07;49068.59;;;-149.77;33.31
60055;BME280;45930;53.514;55.904;2023-04-12T05:18:08;49058.69;;;-149.77;33.37
60055;BME280;45930;53.514;55.904;2023-04-12T05:19:09;49044.81;;;-149.77;32.69
60055;BME280;45930;53.514;55.904;2023-04-12T05:20:10;49060.66;;;-149.77;32.06
60055;BME280;45930;53.514;55.904;2023-04-12T05:21:10;49076.50;;;-149.77;32.38
60055;BME280;45930;53.514;55.904;2023-04-12T05:22:11;49066.59;;;-149.77;32.01
60055;BME280;45930;53.514;55.904;2023-04-12T05:23:14;49072.53;;;-149.77;32.13
60055;BME280;45930;53.514;55.904;2023-04-12T05:24:15;49066.59;;;-149.77;31.20
60055;BME280;45930;53.514;55.904;2023-04-12T05:25:15;49064.63;;;-149.77;31.48